createdAt,value
2017-04-03T00:00:35.926Z,964.69
2017-04-03T00:02:53.872Z,964.69
2017-04-03T00:03:34.451Z,964.69
2017-04-03T00:04:15.038Z,964.68
2017-04-03T00:04:55.620Z,964.72
2017-04-03T00:05:36.201Z,964.69
2017-04-03T00:06:16.798Z,964.75
2017-04-03T00:06:57.382Z,964.73
2017-04-03T00:07:37.958Z,964.75
2017-04-03T00:08:18.540Z,964.7
2017-04-03T00:08:59.115Z,964.76
2017-04-03T00:09:39.693Z,964.74
2017-04-03T00:10:20.279Z,964.78
2017-04-03T00:12:17.995Z,964.77
2017-04-03T00:12:58.583Z,964.8
2017-04-03T00:13:39.165Z,964.83
2017-04-03T00:14:19.750Z,964.85
2017-04-03T00:15:00.334Z,964.86
2017-04-03T00:15:40.916Z,964.83
2017-04-03T00:16:21.484Z,964.87
2017-04-03T00:17:02.062Z,964.85
2017-04-03T00:17:42.656Z,964.85
2017-04-03T00:18:23.237Z,964.9
2017-04-03T00:19:03.811Z,964.89
2017-04-03T00:19:44.395Z,964.89
2017-04-03T00:20:24.979Z,964.9
2017-04-03T00:21:05.554Z,964.91
2017-04-03T00:21:46.141Z,964.92
2017-04-03T00:22:26.707Z,964.93
2017-04-03T00:23:07.285Z,964.96
2017-04-03T00:23:47.869Z,964.96
2017-04-03T00:24:28.481Z,964.95
2017-04-03T00:25:09.036Z,964.95
2017-04-03T00:25:49.609Z,964.99
2017-04-03T00:26:30.192Z,964.97
2017-04-03T00:27:10.779Z,964.98
2017-04-03T00:27:51.359Z,964.96
2017-04-03T00:28:31.949Z,964.93
2017-04-03T00:29:12.526Z,964.98
2017-04-03T00:29:53.115Z,965
2017-04-03T00:30:33.695Z,965.02
2017-04-03T00:31:14.283Z,965.01
2017-04-03T00:31:54.875Z,964.99
2017-04-03T00:32:50.235Z,964.98
2017-04-03T00:33:30.810Z,965.02
2017-04-03T00:34:11.389Z,964.98
2017-04-03T00:34:51.973Z,965
2017-04-03T00:35:32.553Z,965.02
2017-04-03T00:36:13.137Z,965.02
2017-04-03T00:36:53.714Z,965.02
2017-04-03T00:37:34.288Z,965
2017-04-03T00:38:14.872Z,965.01
2017-04-03T00:38:55.455Z,965.01
2017-04-03T00:39:36.038Z,965.05
2017-04-03T00:40:16.661Z,965.04
2017-04-03T00:40:57.195Z,965.06
2017-04-03T00:41:37.779Z,965.07
2017-04-03T00:42:18.365Z,965.05
2017-04-03T00:42:58.948Z,965.12
2017-04-03T00:43:39.535Z,965.12
2017-04-03T00:44:20.113Z,965.09
2017-04-03T00:45:00.694Z,965.1
2017-04-03T00:45:41.283Z,965.08
2017-04-03T00:46:21.857Z,965.12
2017-04-03T00:47:02.442Z,965.09
2017-04-03T00:47:43.023Z,965.12
2017-04-03T00:48:23.609Z,965.11
2017-04-03T00:49:04.196Z,965.11
2017-04-03T00:49:59.602Z,965.12
2017-04-03T00:50:40.183Z,965.1
2017-04-03T00:51:20.773Z,965.11
2017-04-03T00:52:01.360Z,965.1
2017-04-03T00:52:41.937Z,965.12
2017-04-03T00:53:22.525Z,965.12
2017-04-03T00:54:03.107Z,965.16
2017-04-03T00:54:43.709Z,965.17
2017-04-03T00:55:24.279Z,965.19
2017-04-03T00:56:04.861Z,965.17
2017-04-03T00:56:45.446Z,965.21
2017-04-03T00:58:38.057Z,965.21
2017-04-03T00:59:18.635Z,965.24
2017-04-03T00:59:59.223Z,965.23
2017-04-03T01:00:39.809Z,965.22
2017-04-03T01:01:20.390Z,965.22
2017-04-03T01:02:00.975Z,965.23
2017-04-03T01:02:41.587Z,965.25
2017-04-03T01:03:22.137Z,965.19
2017-04-03T01:04:02.719Z,965.25
2017-04-03T01:04:43.340Z,965.24
2017-04-03T01:05:23.890Z,965.24
2017-04-03T01:06:04.467Z,965.23
2017-04-03T01:06:45.049Z,965.26
2017-04-03T01:07:25.626Z,965.25
2017-04-03T01:08:06.215Z,965.21
2017-04-03T01:08:46.798Z,965.22
2017-04-03T01:09:27.371Z,965.23
2017-04-03T01:10:07.946Z,965.29
2017-04-03T01:10:48.528Z,965.28
2017-04-03T01:11:29.107Z,965.29
2017-04-03T01:12:09.690Z,965.3
2017-04-03T01:12:50.267Z,965.28
2017-04-03T01:13:30.848Z,965.27
2017-04-03T01:14:11.427Z,965.26
2017-04-03T01:14:52.012Z,965.27
2017-04-03T01:15:32.598Z,965.29
2017-04-03T01:16:13.173Z,965.26
2017-04-03T01:16:53.770Z,965.22
2017-04-03T01:17:34.351Z,965.27
2017-04-03T01:18:14.930Z,965.22
2017-04-03T01:18:55.524Z,965.23
2017-04-03T01:19:36.090Z,965.22
2017-04-03T01:20:16.684Z,965.25
2017-04-03T01:20:57.269Z,965.22
2017-04-03T01:21:52.662Z,965.23
2017-04-03T01:22:33.250Z,965.26
2017-04-03T01:23:28.609Z,965.27
2017-04-03T01:24:09.192Z,965.28
2017-04-03T01:24:49.777Z,965.22
2017-04-03T01:25:30.404Z,965.24
2017-04-03T01:26:10.937Z,965.24
2017-04-03T01:26:51.525Z,965.27
2017-04-03T01:27:32.112Z,965.29
2017-04-03T01:28:12.692Z,965.3
2017-04-03T01:28:53.277Z,965.28
2017-04-03T01:29:33.931Z,965.27
2017-04-03T01:30:14.515Z,965.25
2017-04-03T01:30:55.099Z,965.26
2017-04-03T01:31:35.684Z,965.28
2017-04-03T01:32:16.268Z,965.28
2017-04-03T01:32:56.855Z,965.29
2017-04-03T01:33:37.435Z,965.26
2017-04-03T01:34:18.010Z,965.33
2017-04-03T01:34:58.595Z,965.3
2017-04-03T01:35:39.178Z,965.31
2017-04-03T01:36:19.766Z,965.3
2017-04-03T01:37:00.347Z,965.32
2017-04-03T01:37:41.051Z,965.34
2017-04-03T01:38:21.637Z,965.32
2017-04-03T01:39:02.219Z,965.35
2017-04-03T01:39:42.802Z,965.33
2017-04-03T01:40:23.389Z,965.35
2017-04-03T01:41:03.970Z,965.34
2017-04-03T01:41:44.551Z,965.35
2017-04-03T01:42:25.130Z,965.34
2017-04-03T01:43:05.719Z,965.35
2017-04-03T01:43:46.290Z,965.35
2017-04-03T01:44:26.859Z,965.32
2017-04-03T01:45:07.447Z,965.37
2017-04-03T01:45:48.026Z,965.38
2017-04-03T01:46:28.612Z,965.4
2017-04-03T01:47:09.183Z,965.35
2017-04-03T01:47:49.771Z,965.35
2017-04-03T01:48:30.341Z,965.38
2017-04-03T01:49:10.930Z,965.38
2017-04-03T01:49:51.516Z,965.38
2017-04-03T01:50:32.100Z,965.37
2017-04-03T01:51:12.683Z,965.4
2017-04-03T01:51:53.266Z,965.36
2017-04-03T01:52:33.854Z,965.35
2017-04-03T01:53:14.438Z,965.35
2017-04-03T01:53:55.019Z,965.31
2017-04-03T01:54:35.599Z,965.32
2017-04-03T01:55:16.178Z,965.38
2017-04-03T01:55:56.759Z,965.38
2017-04-03T01:56:37.344Z,965.37
2017-04-03T01:57:17.925Z,965.35
2017-04-03T01:57:58.518Z,965.37
2017-04-03T01:58:39.104Z,965.37
2017-04-03T01:59:19.689Z,965.4
2017-04-03T02:00:00.273Z,965.39
2017-04-03T02:00:40.862Z,965.39
2017-04-03T02:01:21.453Z,965.39
2017-04-03T02:02:02.032Z,965.36
2017-04-03T02:02:42.615Z,965.39
2017-04-03T02:03:23.199Z,965.38
2017-04-03T02:04:03.787Z,965.34
2017-04-03T02:04:44.361Z,965.39
2017-04-03T02:05:24.948Z,965.34
2017-04-03T02:06:05.532Z,965.35
2017-04-03T02:06:46.112Z,965.32
2017-04-03T02:07:26.703Z,965.35
2017-04-03T02:08:07.275Z,965.36
2017-04-03T02:08:47.857Z,965.37
2017-04-03T02:09:28.439Z,965.37
2017-04-03T02:10:09.033Z,965.39
2017-04-03T02:10:49.603Z,965.41
2017-04-03T02:11:30.181Z,965.36
2017-04-03T02:12:10.772Z,965.36
2017-04-03T02:12:51.351Z,965.39
2017-04-03T02:13:31.944Z,965.38
2017-04-03T02:14:12.529Z,965.43
2017-04-03T02:14:53.111Z,965.4
2017-04-03T02:15:33.694Z,965.4
2017-04-03T02:16:14.269Z,965.41
2017-04-03T02:16:54.854Z,965.43
2017-04-03T02:17:35.441Z,965.43
2017-04-03T02:18:16.025Z,965.41
2017-04-03T02:18:56.611Z,965.43
2017-04-03T02:19:37.183Z,965.43
2017-04-03T02:20:17.786Z,965.36
2017-04-03T02:20:58.364Z,965.4
2017-04-03T02:21:38.947Z,965.36
2017-04-03T02:22:19.523Z,965.37
2017-04-03T02:23:00.117Z,965.37
2017-04-03T02:23:40.693Z,965.36
2017-04-03T02:24:21.275Z,965.35
2017-04-03T02:25:01.857Z,965.36
2017-04-03T02:25:42.442Z,965.35
2017-04-03T02:26:23.018Z,965.39
2017-04-03T02:27:03.602Z,965.4
2017-04-03T02:27:44.187Z,965.36
2017-04-03T02:28:24.773Z,965.37
2017-04-03T02:29:05.362Z,965.34
2017-04-03T02:29:45.945Z,965.38
2017-04-03T02:30:26.528Z,965.34
2017-04-03T02:32:19.140Z,965.35
2017-04-03T02:32:59.724Z,965.37
2017-04-03T02:33:40.307Z,965.35
2017-04-03T02:34:20.889Z,965.36
2017-04-03T02:35:01.470Z,965.34
2017-04-03T02:35:42.038Z,965.31
2017-04-03T02:36:22.617Z,965.33
2017-04-03T02:37:04.181Z,965.32
2017-04-03T02:37:44.195Z,965.31
2017-04-03T02:38:24.779Z,965.32
2017-04-03T02:39:05.362Z,965.35
2017-04-03T02:39:45.943Z,965.33
2017-04-03T02:40:26.553Z,965.36
2017-04-03T02:43:36.173Z,965.33
2017-04-03T02:45:54.118Z,965.31
2017-04-03T02:46:34.705Z,965.34
2017-04-03T02:47:15.268Z,965.36
2017-04-03T02:47:55.857Z,965.36
2017-04-03T02:48:36.441Z,965.28
2017-04-03T02:49:17.010Z,965.31
2017-04-03T02:49:57.587Z,965.28
2017-04-03T02:50:38.167Z,965.27
2017-04-03T02:51:18.759Z,965.33
2017-04-03T02:51:59.328Z,965.34
2017-04-03T02:52:39.908Z,965.27
2017-04-03T02:53:20.500Z,965.28
2017-04-03T02:54:01.080Z,965.3
2017-04-03T02:54:41.657Z,965.3
2017-04-03T02:55:22.228Z,965.3
2017-04-03T02:57:40.166Z,965.34
2017-04-03T02:58:20.730Z,965.3
2017-04-03T02:59:01.312Z,965.33
2017-04-03T02:59:41.896Z,965.3
2017-04-03T03:00:22.473Z,965.35
2017-04-03T03:01:03.047Z,965.32
2017-04-03T03:01:43.639Z,965.34
2017-04-03T03:02:24.216Z,965.35
2017-04-03T03:03:04.798Z,965.37
2017-04-03T03:03:45.384Z,965.4
2017-04-03T03:04:25.968Z,965.43
2017-04-03T03:05:06.544Z,965.41
2017-04-03T03:05:47.125Z,965.4
2017-04-03T03:06:27.701Z,965.42
2017-04-03T03:07:08.282Z,965.41
2017-04-03T03:07:48.867Z,965.37
2017-04-03T03:08:29.445Z,965.37
2017-04-03T03:09:10.023Z,965.35
2017-04-03T03:11:27.982Z,965.33
2017-04-03T03:12:08.562Z,965.34
2017-04-03T03:12:49.146Z,965.31
2017-04-03T03:13:29.723Z,965.33
2017-04-03T03:14:10.317Z,965.31
2017-04-03T03:14:50.882Z,965.31
2017-04-03T03:15:31.469Z,965.31
2017-04-03T03:16:12.060Z,965.32
2017-04-03T03:16:52.636Z,965.3
2017-04-03T03:17:33.217Z,965.32
2017-04-03T03:18:13.800Z,965.32
2017-04-03T03:18:54.383Z,965.3
2017-04-03T03:19:34.975Z,965.28
2017-04-03T03:20:15.558Z,965.33
2017-04-03T03:20:56.138Z,965.31
2017-04-03T03:21:37.367Z,965.3
2017-04-03T03:22:18.091Z,965.3
2017-04-03T03:22:59.020Z,965.29
2017-04-03T03:23:40.083Z,965.28
2017-04-03T03:24:20.892Z,965.26
2017-04-03T03:25:01.892Z,965.28
2017-04-03T03:25:42.486Z,965.28
2017-04-03T03:26:23.075Z,965.3
2017-04-03T03:27:04.040Z,965.29
2017-04-03T03:27:44.787Z,965.3
2017-04-03T03:28:25.520Z,965.3
2017-04-03T03:29:06.270Z,965.32
2017-04-03T03:29:46.935Z,965.34
2017-04-03T03:30:27.731Z,965.31
2017-04-03T03:31:08.911Z,965.3
2017-04-03T03:31:49.483Z,965.28
2017-04-03T03:32:30.256Z,965.28
2017-04-03T03:33:11.220Z,965.33
2017-04-03T03:33:52.131Z,965.31
2017-04-03T03:34:33.063Z,965.28
2017-04-03T03:35:13.758Z,965.28
2017-04-03T03:35:54.491Z,965.29
2017-04-03T03:36:35.425Z,965.29
2017-04-03T03:37:16.366Z,965.28
2017-04-03T03:37:57.330Z,965.33
2017-04-03T03:38:38.243Z,965.28
2017-04-03T03:39:18.834Z,965.35
2017-04-03T03:39:59.651Z,965.32
2017-04-03T03:40:40.242Z,965.35
2017-04-03T03:41:20.892Z,965.34
2017-04-03T03:42:01.472Z,965.31
2017-04-03T03:42:42.056Z,965.32
2017-04-03T03:43:22.637Z,965.33
2017-04-03T03:44:03.210Z,965.33
2017-04-03T03:44:43.795Z,965.32
2017-04-03T03:45:24.379Z,965.34
2017-04-03T03:46:04.953Z,965.31
2017-04-03T03:46:45.530Z,965.34
2017-04-03T03:47:26.115Z,965.35
2017-04-03T03:48:06.683Z,965.39
2017-04-03T03:48:47.267Z,965.34
2017-04-03T03:49:27.848Z,965.33
2017-04-03T03:50:08.432Z,965.36
2017-04-03T03:50:49.014Z,965.36
2017-04-03T03:51:29.601Z,965.33
2017-04-03T03:52:10.177Z,965.4
2017-04-03T03:52:50.750Z,965.33
2017-04-03T03:53:31.334Z,965.37
2017-04-03T03:54:11.923Z,965.39
2017-04-03T03:54:52.507Z,965.36
2017-04-03T03:55:33.092Z,965.32
2017-04-03T03:56:13.663Z,965.3
2017-04-03T03:56:54.237Z,965.32
2017-04-03T03:57:34.824Z,965.34
2017-04-03T03:58:15.408Z,965.29
2017-04-03T03:58:55.980Z,965.24
2017-04-03T03:59:36.568Z,965.26
2017-04-03T04:00:17.152Z,965.26
2017-04-03T04:00:57.738Z,965.24
2017-04-03T04:01:38.313Z,965.26
2017-04-03T04:02:18.907Z,965.29
2017-04-03T04:02:59.490Z,965.27
2017-04-03T04:03:40.073Z,965.23
2017-04-03T04:04:20.647Z,965.28
2017-04-03T04:05:01.225Z,965.29
2017-04-03T04:05:41.806Z,965.28
2017-04-03T04:06:22.387Z,965.27
2017-04-03T04:07:02.975Z,965.24
2017-04-03T04:07:43.558Z,965.23
2017-04-03T04:08:24.130Z,965.23
2017-04-03T04:09:04.712Z,965.24
2017-04-03T04:09:45.300Z,965.24
2017-04-03T04:10:25.877Z,965.23
2017-04-03T04:11:06.458Z,965.21
2017-04-03T04:11:47.040Z,965.22
2017-04-03T04:12:27.618Z,965.21
2017-04-03T04:13:08.201Z,965.24
2017-04-03T04:13:48.778Z,965.19
2017-04-03T04:14:29.361Z,965.2
2017-04-03T04:15:09.940Z,965.19
2017-04-03T04:15:50.521Z,965.24
2017-04-03T04:16:31.103Z,965.22
2017-04-03T04:17:11.685Z,965.18
2017-04-03T04:17:52.273Z,965.23
2017-04-03T04:18:32.856Z,965.21
2017-04-03T04:19:13.437Z,965.23
2017-04-03T04:19:54.009Z,965.21
2017-04-03T04:20:34.592Z,965.17
2017-04-03T04:21:15.172Z,965.21
2017-04-03T04:21:55.756Z,965.21
2017-04-03T04:22:36.338Z,965.21
2017-04-03T04:23:16.923Z,965.22
2017-04-03T04:23:57.495Z,965.2
2017-04-03T04:24:38.063Z,965.21
2017-04-03T04:25:18.642Z,965.19
2017-04-03T04:25:59.225Z,965.23
2017-04-03T04:26:39.805Z,965.23
2017-04-03T04:27:20.381Z,965.22
2017-04-03T04:28:00.962Z,965.18
2017-04-03T04:28:41.545Z,965.23
2017-04-03T04:30:39.251Z,965.19
2017-04-03T04:31:19.834Z,965.17
2017-04-03T04:32:00.407Z,965.2
2017-04-03T04:32:40.985Z,965.2
2017-04-03T04:33:21.572Z,965.19
2017-04-03T04:34:02.148Z,965.16
2017-04-03T04:34:42.721Z,965.19
2017-04-03T04:35:23.300Z,965.19
2017-04-03T04:36:03.886Z,965.19
2017-04-03T04:36:44.459Z,965.18
2017-04-03T04:37:25.045Z,965.17
2017-04-03T04:38:05.614Z,965.21
2017-04-03T04:38:46.192Z,965.21
2017-04-03T04:39:26.751Z,965.2
2017-04-03T04:40:07.341Z,965.17
2017-04-03T04:40:47.947Z,965.23
2017-04-03T04:41:28.531Z,965.24
2017-04-03T04:42:09.105Z,965.22
2017-04-03T04:42:49.676Z,965.21
2017-04-03T04:43:30.262Z,965.25
2017-04-03T04:44:10.824Z,965.24
2017-04-03T04:44:51.404Z,965.27
2017-04-03T04:46:44.026Z,965.29
2017-04-03T04:47:24.584Z,965.23
2017-04-03T04:48:05.156Z,965.27
2017-04-03T04:48:45.737Z,965.29
2017-04-03T04:49:26.319Z,965.26
2017-04-03T04:50:06.905Z,965.32
2017-04-03T04:50:47.488Z,965.3
2017-04-03T04:51:28.069Z,965.31
2017-04-03T04:52:08.645Z,965.38
2017-04-03T04:52:49.226Z,965.35
2017-04-03T04:53:29.805Z,965.38
2017-04-03T04:54:10.383Z,965.4
2017-04-03T04:54:50.968Z,965.4
2017-04-03T04:55:31.544Z,965.45
2017-04-03T04:56:12.131Z,965.44
2017-04-03T04:56:52.711Z,965.46
2017-04-03T04:57:33.268Z,965.47
2017-04-03T04:59:30.980Z,965.49
2017-04-03T05:00:11.563Z,965.5
2017-04-03T05:00:52.145Z,965.51
2017-04-03T05:01:32.729Z,965.53
2017-04-03T05:02:13.303Z,965.51
2017-04-03T05:02:53.880Z,965.53
2017-04-03T05:03:34.458Z,965.54
2017-04-03T05:04:15.033Z,965.53
2017-04-03T05:04:55.608Z,965.55
2017-04-03T05:05:36.190Z,965.57
2017-04-03T05:06:16.762Z,965.6
2017-04-03T05:06:57.337Z,965.59
2017-04-03T05:07:37.916Z,965.57
2017-04-03T05:08:18.483Z,965.55
2017-04-03T05:08:59.067Z,965.6
2017-04-03T05:09:39.649Z,965.59
2017-04-03T05:10:20.219Z,965.59
2017-04-03T05:11:00.790Z,965.64
2017-04-03T05:11:41.375Z,965.6
2017-04-03T05:12:21.958Z,965.64
2017-04-03T05:13:02.531Z,965.65
2017-04-03T05:13:43.115Z,965.64
2017-04-03T05:14:23.701Z,965.67
2017-04-03T05:15:04.282Z,965.64
2017-04-03T05:15:44.855Z,965.69
2017-04-03T05:16:25.439Z,965.7
2017-04-03T05:17:06.015Z,965.72
2017-04-03T05:17:46.597Z,965.74
2017-04-03T05:18:27.177Z,965.76
2017-04-03T05:19:07.748Z,965.75
2017-04-03T05:19:48.355Z,965.75
2017-04-03T05:20:28.906Z,965.77
2017-04-03T05:21:09.490Z,965.75
2017-04-03T05:21:50.068Z,965.79
2017-04-03T05:22:30.650Z,965.73
2017-04-03T05:23:11.226Z,965.78
2017-04-03T05:23:51.813Z,965.79
2017-04-03T05:24:32.391Z,965.78
2017-04-03T05:25:12.986Z,965.78
2017-04-03T05:25:53.547Z,965.8
2017-04-03T05:26:34.126Z,965.82
2017-04-03T05:27:14.703Z,965.78
2017-04-03T05:27:55.277Z,965.77
2017-04-03T05:28:35.857Z,965.81
2017-04-03T05:29:16.440Z,965.78
2017-04-03T05:29:57.026Z,965.82
2017-04-03T05:30:37.605Z,965.83
2017-04-03T05:32:30.211Z,965.79
2017-04-03T05:33:10.786Z,965.8
2017-04-03T05:33:51.359Z,965.81
2017-04-03T05:34:31.936Z,965.8
2017-04-03T05:35:12.518Z,965.8
2017-04-03T05:35:53.094Z,965.84
2017-04-03T05:36:33.656Z,965.83
2017-04-03T05:37:14.233Z,965.86
2017-04-03T05:37:54.809Z,965.84
2017-04-03T05:38:35.378Z,965.86
2017-04-03T05:39:15.955Z,965.84
2017-04-03T05:39:56.535Z,965.83
2017-04-03T05:40:37.115Z,965.88
2017-04-03T05:41:17.686Z,965.84
2017-04-03T05:43:10.291Z,965.91
2017-04-03T05:43:50.875Z,965.9
2017-04-03T05:44:31.453Z,965.89
2017-04-03T05:45:26.799Z,965.91
2017-04-03T05:46:07.360Z,965.94
2017-04-03T05:46:47.946Z,965.92
2017-04-03T05:47:28.521Z,965.92
2017-04-03T05:48:09.099Z,965.94
2017-04-03T05:48:49.678Z,965.92
2017-04-03T05:49:30.258Z,965.96
2017-04-03T05:50:10.840Z,965.96
2017-04-03T05:50:51.428Z,965.98
2017-04-03T05:51:32.002Z,965.99
2017-04-03T05:52:12.581Z,966.01
2017-04-03T05:52:53.154Z,966.01
2017-04-03T05:53:33.732Z,966.01
2017-04-03T05:54:14.312Z,966.01
2017-04-03T05:54:54.895Z,966
2017-04-03T05:55:35.478Z,966.04
2017-04-03T05:56:16.059Z,966.08
2017-04-03T05:56:56.653Z,966.08
2017-04-03T05:57:37.228Z,966.06
2017-04-03T05:58:17.810Z,966.07
2017-04-03T05:58:58.396Z,966.09
2017-04-03T05:59:38.966Z,966.07
2017-04-03T06:00:19.548Z,966.08
2017-04-03T06:01:00.132Z,966.07
2017-04-03T06:01:40.717Z,966.07
2017-04-03T06:02:21.294Z,966.05
2017-04-03T06:03:01.880Z,966.06
2017-04-03T06:03:42.461Z,966.05
2017-04-03T06:04:23.047Z,966.05
2017-04-03T06:05:03.632Z,966.09
2017-04-03T06:05:44.213Z,966.06
2017-04-03T06:06:24.799Z,966.09
2017-04-03T06:07:05.384Z,966.11
2017-04-03T06:07:45.965Z,966.11
2017-04-03T06:08:26.544Z,966.11
2017-04-03T06:09:07.110Z,966.15
2017-04-03T06:09:47.690Z,966.15
2017-04-03T06:10:28.271Z,966.19
2017-04-03T06:11:08.843Z,966.17
2017-04-03T06:11:49.422Z,966.2
2017-04-03T06:12:30.012Z,966.22
2017-04-03T06:13:10.590Z,966.22
2017-04-03T06:13:51.169Z,966.21
2017-04-03T06:14:31.750Z,966.18
2017-04-03T06:15:12.330Z,966.24
2017-04-03T06:15:52.915Z,966.25
2017-04-03T06:16:33.500Z,966.23
2017-04-03T06:17:14.082Z,966.26
2017-04-03T06:17:54.666Z,966.23
2017-04-03T06:18:35.245Z,966.25
2017-04-03T06:19:15.833Z,966.26
2017-04-03T06:19:56.410Z,966.25
2017-04-03T06:20:51.802Z,966.26
2017-04-03T06:21:32.388Z,966.25
2017-04-03T06:22:12.972Z,966.27
2017-04-03T06:22:53.535Z,966.26
2017-04-03T06:23:34.117Z,966.26
2017-04-03T06:24:14.704Z,966.25
2017-04-03T06:24:55.285Z,966.28
2017-04-03T06:25:35.877Z,966.25
2017-04-03T06:26:16.456Z,966.26
2017-04-03T06:26:57.033Z,966.27
2017-04-03T06:27:37.605Z,966.27
2017-04-03T06:28:18.196Z,966.28
2017-04-03T06:28:58.772Z,966.27
2017-04-03T06:29:39.357Z,966.31
2017-04-03T06:30:19.946Z,966.31
2017-04-03T06:31:00.518Z,966.31
2017-04-03T06:31:41.107Z,966.35
2017-04-03T06:32:21.682Z,966.34
2017-04-03T06:33:02.248Z,966.34
2017-04-03T06:33:42.830Z,966.34
2017-04-03T06:34:23.416Z,966.36
2017-04-03T06:35:04.007Z,966.37
2017-04-03T06:35:44.578Z,966.34
2017-04-03T06:36:25.159Z,966.36
2017-04-03T06:37:05.739Z,966.35
2017-04-03T06:37:46.321Z,966.36
2017-04-03T06:38:26.899Z,966.38
2017-04-03T06:39:07.477Z,966.36
2017-04-03T06:39:48.056Z,966.37
2017-04-03T06:40:28.641Z,966.37
2017-04-03T06:41:09.206Z,966.41
2017-04-03T06:41:49.796Z,966.36
2017-04-03T06:42:30.378Z,966.38
2017-04-03T06:43:10.953Z,966.43
2017-04-03T06:43:51.528Z,966.41
2017-04-03T06:44:32.139Z,966.4
2017-04-03T06:45:12.683Z,966.41
2017-04-03T06:45:53.256Z,966.41
2017-04-03T06:46:33.843Z,966.39
2017-04-03T06:47:14.423Z,966.43
2017-04-03T06:47:55.002Z,966.38
2017-04-03T06:48:35.589Z,966.36
2017-04-03T06:49:16.162Z,966.39
2017-04-03T06:49:56.748Z,966.38
2017-04-03T06:50:37.326Z,966.36
2017-04-03T06:51:17.906Z,966.38
2017-04-03T06:51:58.485Z,966.4
2017-04-03T06:52:39.064Z,966.39
2017-04-03T06:53:19.650Z,966.41
2017-04-03T06:55:12.249Z,966.42
2017-04-03T06:55:52.832Z,966.43
2017-04-03T06:56:33.409Z,966.45
2017-04-03T06:57:13.993Z,966.45
2017-04-03T06:57:54.578Z,966.48
2017-04-03T06:58:35.152Z,966.48
2017-04-03T06:59:15.727Z,966.45
2017-04-03T06:59:56.308Z,966.43
2017-04-03T07:00:36.888Z,966.45
2017-04-03T07:01:17.473Z,966.47
2017-04-03T07:01:58.058Z,966.47
2017-04-03T07:02:38.640Z,966.47
2017-04-03T07:03:19.223Z,966.43
2017-04-03T07:03:59.807Z,966.44
2017-04-03T07:04:40.393Z,966.44
2017-04-03T07:05:21.014Z,966.46
2017-04-03T07:06:01.550Z,966.41
2017-04-03T07:06:42.123Z,966.38
2017-04-03T07:07:22.705Z,966.44
2017-04-03T07:08:03.288Z,966.42
2017-04-03T07:08:43.867Z,966.43
2017-04-03T07:09:24.480Z,966.41
2017-04-03T07:10:05.033Z,966.43
2017-04-03T07:10:45.616Z,966.47
2017-04-03T07:11:26.203Z,966.47
2017-04-03T07:12:06.786Z,966.44
2017-04-03T07:12:47.375Z,966.41
2017-04-03T07:13:27.958Z,966.43
2017-04-03T07:14:08.538Z,966.47
2017-04-03T07:14:49.127Z,966.44
2017-04-03T07:15:44.437Z,966.47
2017-04-03T07:16:25.023Z,966.44
2017-04-03T07:17:05.607Z,966.43
2017-04-03T07:17:46.188Z,966.47
2017-04-03T07:18:26.770Z,966.43
2017-04-03T07:19:07.359Z,966.45
2017-04-03T07:19:47.941Z,966.45
2017-04-03T07:20:28.526Z,966.43
2017-04-03T07:21:09.116Z,966.46
2017-04-03T07:21:49.698Z,966.47
2017-04-03T07:22:30.269Z,966.46
2017-04-03T07:23:10.854Z,966.45
2017-04-03T07:23:51.442Z,966.51
2017-04-03T07:24:32.025Z,966.5
2017-04-03T07:25:12.621Z,966.51
2017-04-03T07:25:53.204Z,966.49
2017-04-03T07:26:33.793Z,966.46
2017-04-03T07:27:14.371Z,966.45
2017-04-03T07:27:54.959Z,966.47
2017-04-03T07:28:35.541Z,966.49
2017-04-03T07:29:16.127Z,966.48
2017-04-03T07:29:56.708Z,966.47
2017-04-03T07:30:37.295Z,966.5
2017-04-03T07:31:17.877Z,966.49
2017-04-03T07:31:58.463Z,966.51
2017-04-03T07:32:39.050Z,966.54
2017-04-03T07:33:19.640Z,966.57
2017-04-03T07:34:00.225Z,966.54
2017-04-03T07:34:40.806Z,966.59
2017-04-03T07:35:21.391Z,966.6
2017-04-03T07:36:01.971Z,966.58
2017-04-03T07:36:42.558Z,966.59
2017-04-03T07:37:23.145Z,966.62
2017-04-03T07:38:03.732Z,966.61
2017-04-03T07:38:44.319Z,966.61
2017-04-03T07:39:24.901Z,966.67
2017-04-03T07:40:05.487Z,966.65
2017-04-03T07:40:46.075Z,966.6
2017-04-03T07:41:26.657Z,966.63
2017-04-03T07:42:07.243Z,966.57
2017-04-03T07:42:47.827Z,966.55
2017-04-03T07:43:28.414Z,966.56
2017-04-03T07:44:09.006Z,966.58
2017-04-03T07:44:49.585Z,966.59
2017-04-03T07:45:30.150Z,966.57
2017-04-03T07:46:10.743Z,966.6
2017-04-03T07:46:51.328Z,966.58
2017-04-03T07:47:31.916Z,966.62
2017-04-03T07:48:12.501Z,966.63
2017-04-03T07:48:53.090Z,966.65
2017-04-03T07:49:33.675Z,966.65
2017-04-03T07:50:14.256Z,966.67
2017-04-03T07:50:54.841Z,966.7
2017-04-03T07:51:35.429Z,966.65
2017-04-03T07:52:16.010Z,966.71
2017-04-03T07:52:56.599Z,966.7
2017-04-03T07:53:37.185Z,966.73
2017-04-03T07:54:17.778Z,966.69
2017-04-03T07:54:58.359Z,966.71
2017-04-03T07:55:38.951Z,966.68
2017-04-03T07:56:19.533Z,966.71
2017-04-03T07:57:00.113Z,966.7
2017-04-03T07:57:40.691Z,966.72
2017-04-03T07:58:21.275Z,966.72
2017-04-03T07:59:01.863Z,966.68
2017-04-03T07:59:42.443Z,966.71
2017-04-03T08:00:23.036Z,966.73
2017-04-03T08:01:03.617Z,966.74
2017-04-03T08:01:44.191Z,966.72
2017-04-03T08:02:39.453Z,966.73
2017-04-03T08:03:20.044Z,966.76
2017-04-03T08:04:00.630Z,966.71
2017-04-03T08:04:41.208Z,966.71
2017-04-03T08:05:21.789Z,966.66
2017-04-03T08:06:02.375Z,966.68
2017-04-03T08:06:42.951Z,966.66
2017-04-03T08:07:23.545Z,966.62
2017-04-03T08:08:04.131Z,966.63
2017-04-03T08:08:44.716Z,966.62
2017-04-03T08:09:25.295Z,966.64
2017-04-03T08:10:05.876Z,966.69
2017-04-03T08:10:46.460Z,966.73
2017-04-03T08:11:27.042Z,966.68
2017-04-03T08:12:07.625Z,966.68
2017-04-03T08:12:48.207Z,966.69
2017-04-03T08:13:28.790Z,966.68
2017-04-03T08:14:09.373Z,966.66
2017-04-03T08:14:49.958Z,966.66
2017-04-03T08:15:30.540Z,966.64
2017-04-03T08:16:11.126Z,966.66
2017-04-03T08:16:51.718Z,966.69
2017-04-03T08:17:32.301Z,966.68
2017-04-03T08:18:12.883Z,966.64
2017-04-03T08:18:53.469Z,966.67
2017-04-03T08:19:34.056Z,966.62
2017-04-03T08:20:14.647Z,966.68
2017-04-03T08:20:55.231Z,966.67
2017-04-03T08:21:35.826Z,966.69
2017-04-03T08:22:16.401Z,966.66
2017-04-03T08:23:11.683Z,966.68
2017-04-03T08:23:52.274Z,966.7
2017-04-03T08:24:32.860Z,966.68
2017-04-03T08:25:13.452Z,966.69
2017-04-03T08:25:54.036Z,966.68
2017-04-03T08:26:34.625Z,966.7
2017-04-03T08:27:15.209Z,966.68
2017-04-03T08:27:55.793Z,966.7
2017-04-03T08:28:36.386Z,966.71
2017-04-03T08:29:16.972Z,966.72
2017-04-03T08:29:57.558Z,966.7
2017-04-03T08:30:38.140Z,966.74
2017-04-03T08:31:18.721Z,966.71
2017-04-03T08:32:14.297Z,966.73
2017-04-03T08:32:54.883Z,966.71
2017-04-03T08:33:35.466Z,966.7
2017-04-03T08:34:16.061Z,966.68
2017-04-03T08:34:56.650Z,966.7
2017-04-03T08:35:37.231Z,966.72
2017-04-03T08:36:17.818Z,966.78
2017-04-03T08:36:58.411Z,966.72
2017-04-03T08:37:38.990Z,966.74
2017-04-03T08:38:19.569Z,966.73
2017-04-03T08:39:00.155Z,966.73
2017-04-03T08:39:40.740Z,966.74
2017-04-03T08:40:21.329Z,966.72
2017-04-03T08:41:01.911Z,966.72
2017-04-03T08:41:42.498Z,966.72
2017-04-03T08:42:23.086Z,966.73
2017-04-03T08:43:03.669Z,966.71
2017-04-03T08:43:44.248Z,966.71
2017-04-03T08:44:24.827Z,966.69
2017-04-03T08:45:05.410Z,966.72
2017-04-03T08:45:45.998Z,966.7
2017-04-03T08:46:26.583Z,966.7
2017-04-03T08:47:07.171Z,966.71
2017-04-03T08:47:47.758Z,966.68
2017-04-03T08:48:28.345Z,966.74
2017-04-03T08:49:08.933Z,966.73
2017-04-03T08:49:49.516Z,966.73
2017-04-03T08:50:30.105Z,966.72
2017-04-03T08:51:10.693Z,966.72